To NAV CANADA Home Page Login to a new session Search on AWWS site Feedback and Comments Disclaimer Vers la page française équivalente Tips FAQ What's new on the site To the Forecasts and Observations / NOTAM section To "File a Flight Plan" website Publications and other links Update of the User's profile FIC Telephone Numbers My Weather Data Folder Route Weather Data Regional Weather Data Local Weather Data To the Forecasts and Observations / NOTAM section
Request Generated 04/25/2014 at 02:24:41 UTC . Weather information available at that time is displayed.

METAR/TAF

CARTWRIGHT/NL    

METAR CWCA 250200Z 02012KT 12SM -SN SCT010 OVC025 M00/M01 A3012 RMK ST4SC4 SLP200=
SPECI CWCA 250148Z 03012KT 12SM -SN OVC015 RMK ST8=
METAR CWCA 250100Z 02012KT 15SM OVC015 M00/M01 A3013 RMK ST8 SLP204=
METAR CWCA 250000Z 03005KT 15SM OVC025 M00/M01 A3013 RMK SC8 SLP205=

TAF AMD CYCA 250203Z 2502/2514 ADVISORY OFFSITE 02012KT P6SM OVC025
TEMPO 2502/2505 5SM -SHSN OVC015
FM250800 04015KT 6SM -SN OVC015 TEMPO 2508/2514 3SM -SN OVC007
PROB30 2508/2514 2SM -FZDZ BR OVC005
RMK NXT FCST BY 250800Z=
Your time UTC time
Weather data provided by Environment Canada and NAV CANADA